Terminal Aerodrome Forecast
Issued by NWS Twin Cities, MN

Home | Current Version | Previous Version | Text Only | Print | Product List | Glossary On
Versions: 1 2 3 4 5 6 7 8 9 10 11 12 13 14 15 16 17 18 19 20 21 22 23 24 25 26 27 28
000
FTUS43 KMPX 240800 AAA
TAFMSP
TAF AMD
KMSP 240848Z 2409/2512 VRB03KT P6SM SKC
     FM241500 15007KT P6SM SCT250
     FM241900 16010KT P6SM FEW050 SCT120
     FM250100 15008KT P6SM BKN080
     FM250700 16010KT P6SM -SHRA OVC050 PROB30 2507/2511 -TSRA
      OVC040CB=

USA.gov is the U.S. government's official web portal to all federal, state and local government web resources and services.